sensor_id;sensor_type;location;lat;lon;timestamp;P1;durP1;ratioP1;P2;durP2;ratioP2
41643;SDS011;44236;48.098;11.582;2023-03-04T00:01:15;8.07;;;4.75;;
41643;SDS011;44236;48.098;11.582;2023-03-04T00:03:41;8.68;;;4.40;;
41643;SDS011;44236;48.098;11.582;2023-03-04T00:06:07;7.53;;;4.70;;
41643;SDS011;44236;48.098;11.582;2023-03-04T00:08:33;8.00;;;4.55;;
41643;SDS011;44236;48.098;11.582;2023-03-04T00:10:58;8.20;;;4.57;;
41643;SDS011;44236;48.098;11.582;2023-03-04T00:13:24;8.20;;;5.05;;
41643;SDS011;44236;48.098;11.582;2023-03-04T00:15:50;8.55;;;5.20;;
41643;SDS011;44236;48.098;11.582;2023-03-04T00:18:16;6.50;;;4.15;;
41643;SDS011;44236;48.098;11.582;2023-03-04T00:20:42;8.38;;;4.97;;
41643;SDS011;44236;48.098;11.582;2023-03-04T00:23:08;7.15;;;4.28;;
41643;SDS011;44236;48.098;11.582;2023-03-04T00:25:33;6.97;;;4.15;;
41643;SDS011;44236;48.098;11.582;2023-03-04T00:27:59;7.32;;;4.47;;
41643;SDS011;44236;48.098;11.582;2023-03-04T00:30:25;7.97;;;4.68;;
41643;SDS011;44236;48.098;11.582;2023-03-04T00:32:51;7.57;;;5.00;;
41643;SDS011;44236;48.098;11.582;2023-03-04T00:35:16;9.25;;;4.90;;
41643;SDS011;44236;48.098;11.582;2023-03-04T00:37:42;6.95;;;4.68;;
41643;SDS011;44236;48.098;11.582;2023-03-04T00:40:08;7.18;;;4.93;;
41643;SDS011;44236;48.098;11.582;2023-03-04T00:42:34;6.60;;;4.00;;
41643;SDS011;44236;48.098;11.582;2023-03-04T00:45:00;7.38;;;4.47;;
41643;SDS011;44236;48.098;11.582;2023-03-04T00:47:26;7.10;;;4.53;;
41643;SDS011;44236;48.098;11.582;2023-03-04T00:49:51;7.50;;;4.57;;
41643;SDS011;44236;48.098;11.582;2023-03-04T00:52:17;7.40;;;4.50;;
41643;SDS011;44236;48.098;11.582;2023-03-04T00:54:43;7.35;;;4.55;;
41643;SDS011;44236;48.098;11.582;2023-03-04T00:57:08;6.97;;;4.55;;
41643;SDS011;44236;48.098;11.582;2023-03-04T00:59:34;6.78;;;4.05;;
41643;SDS011;44236;48.098;11.582;2023-03-04T01:02:00;6.13;;;4.35;;
41643;SDS011;44236;48.098;11.582;2023-03-04T01:04:25;6.70;;;4.30;;
41643;SDS011;44236;48.098;11.582;2023-03-04T01:06:51;5.80;;;4.10;;
41643;SDS011;44236;48.098;11.582;2023-03-04T01:09:17;7.18;;;4.57;;
41643;SDS011;44236;48.098;11.582;2023-03-04T01:11:42;7.03;;;4.07;;
41643;SDS011;44236;48.098;11.582;2023-03-04T01:14:08;6.88;;;4.32;;
41643;SDS011;44236;48.098;11.582;2023-03-04T01:16:33;6.40;;;4.13;;
41643;SDS011;44236;48.098;11.582;2023-03-04T01:18:59;6.70;;;4.03;;
41643;SDS011;44236;48.098;11.582;2023-03-04T01:21:25;5.97;;;3.78;;
41643;SDS011;44236;48.098;11.582;2023-03-04T01:23:50;5.82;;;4.03;;
41643;SDS011;44236;48.098;11.582;2023-03-04T01:26:16;5.22;;;3.28;;
41643;SDS011;44236;48.098;11.582;2023-03-04T01:28:42;5.53;;;3.45;;
41643;SDS011;44236;48.098;11.582;2023-03-04T01:31:08;5.70;;;3.63;;
41643;SDS011;44236;48.098;11.582;2023-03-04T01:33:33;6.03;;;4.15;;
41643;SDS011;44236;48.098;11.582;2023-03-04T01:35:59;7.53;;;4.05;;
41643;SDS011;44236;48.098;11.582;2023-03-04T01:38:25;6.18;;;4.00;;
41643;SDS011;44236;48.098;11.582;2023-03-04T01:40:50;7.82;;;3.92;;
41643;SDS011;44236;48.098;11.582;2023-03-04T01:43:21;5.22;;;3.25;;
41643;SDS011;44236;48.098;11.582;2023-03-04T01:45:49;5.30;;;3.53;;
41643;SDS011;44236;48.098;11.582;2023-03-04T01:48:17;5.88;;;3.42;;
41643;SDS011;44236;48.098;11.582;2023-03-04T01:50:45;5.40;;;3.70;;
41643;SDS011;44236;48.098;11.582;2023-03-04T01:53:21;5.00;;;3.33;;
41643;SDS011;44236;48.098;11.582;2023-03-04T01:55:49;5.03;;;3.40;;
41643;SDS011;44236;48.098;11.582;2023-03-04T01:58:17;4.72;;;3.30;;
41643;SDS011;44236;48.098;11.582;2023-03-04T02:00:43;5.90;;;3.65;;
41643;SDS011;44236;48.098;11.582;2023-03-04T02:03:10;4.72;;;3.05;;
41643;SDS011;44236;48.098;11.582;2023-03-04T02:05:39;5.28;;;3.28;;
41643;SDS011;44236;48.098;11.582;2023-03-04T02:08:07;5.28;;;3.50;;
41643;SDS011;44236;48.098;11.582;2023-03-04T02:10:33;6.47;;;3.35;;
41643;SDS011;44236;48.098;11.582;2023-03-04T02:12:59;5.38;;;3.50;;
41643;SDS011;44236;48.098;11.582;2023-03-04T02:15:26;6.43;;;3.35;;
41643;SDS011;44236;48.098;11.582;2023-03-04T02:17:53;5.53;;;3.53;;
41643;SDS011;44236;48.098;11.582;2023-03-04T02:25:26;4.85;;;3.17;;
41643;SDS011;44236;48.098;11.582;2023-03-04T02:28:01;4.72;;;2.90;;
41643;SDS011;44236;48.098;11.582;2023-03-04T02:30:27;4.80;;;3.17;;
41643;SDS011;44236;48.098;11.582;2023-03-04T02:32:53;6.00;;;3.20;;
41643;SDS011;44236;48.098;11.582;2023-03-04T02:35:19;5.60;;;3.53;;
41643;SDS011;44236;48.098;11.582;2023-03-04T02:37:45;4.85;;;3.00;;
41643;SDS011;44236;48.098;11.582;2023-03-04T02:40:16;4.47;;;2.97;;
41643;SDS011;44236;48.098;11.582;2023-03-04T02:42:47;5.75;;;2.88;;
41643;SDS011;44236;48.098;11.582;2023-03-04T02:48:18;4.43;;;2.83;;
41643;SDS011;44236;48.098;11.582;2023-03-04T02:50:46;5.25;;;3.13;;
41643;SDS011;44236;48.098;11.582;2023-03-04T02:53:15;3.75;;;2.35;;
41643;SDS011;44236;48.098;11.582;2023-03-04T02:55:41;4.82;;;2.90;;
41643;SDS011;44236;48.098;11.582;2023-03-04T02:58:08;5.03;;;2.90;;
41643;SDS011;44236;48.098;11.582;2023-03-04T03:00:34;6.97;;;3.00;;
41643;SDS011;44236;48.098;11.582;2023-03-04T03:03:00;5.05;;;2.70;;
41643;SDS011;44236;48.098;11.582;2023-03-04T03:05:26;4.05;;;2.58;;
41643;SDS011;44236;48.098;11.582;2023-03-04T03:07:58;4.75;;;2.97;;
41643;SDS011;44236;48.098;11.582;2023-03-04T03:10:24;3.88;;;2.60;;
41643;SDS011;44236;48.098;11.582;2023-03-04T03:12:50;5.65;;;3.40;;
41643;SDS011;44236;48.098;11.582;2023-03-04T03:15:16;4.80;;;2.97;;
41643;SDS011;44236;48.098;11.582;2023-03-04T03:17:42;4.55;;;2.92;;
41643;SDS011;44236;48.098;11.582;2023-03-04T03:20:14;4.22;;;2.90;;
41643;SDS011;44236;48.098;11.582;2023-03-04T03:22:44;3.85;;;2.33;;
41643;SDS011;44236;48.098;11.582;2023-03-04T03:25:10;4.40;;;2.65;;
41643;SDS011;44236;48.098;11.582;2023-03-04T03:27:37;4.93;;;3.10;;
41643;SDS011;44236;48.098;11.582;2023-03-04T03:30:04;4.97;;;2.60;;
41643;SDS011;44236;48.098;11.582;2023-03-04T03:32:31;4.40;;;2.67;;
41643;SDS011;44236;48.098;11.582;2023-03-04T03:34:56;4.13;;;2.28;;
41643;SDS011;44236;48.098;11.582;2023-03-04T03:37:22;4.60;;;3.05;;
41643;SDS011;44236;48.098;11.582;2023-03-04T03:39:48;4.28;;;2.53;;
41643;SDS011;44236;48.098;11.582;2023-03-04T03:42:13;4.15;;;2.80;;
41643;SDS011;44236;48.098;11.582;2023-03-04T03:44:39;4.22;;;2.63;;
41643;SDS011;44236;48.098;11.582;2023-03-04T03:47:04;4.20;;;2.60;;
41643;SDS011;44236;48.098;11.582;2023-03-04T03:49:31;5.80;;;3.20;;
41643;SDS011;44236;48.098;11.582;2023-03-04T03:51:56;4.80;;;2.83;;
41643;SDS011;44236;48.098;11.582;2023-03-04T03:54:22;4.07;;;2.67;;
41643;SDS011;44236;48.098;11.582;2023-03-04T03:56:48;4.25;;;2.65;;
41643;SDS011;44236;48.098;11.582;2023-03-04T03:59:13;3.53;;;2.30;;
41643;SDS011;44236;48.098;11.582;2023-03-04T04:01:39;3.88;;;2.33;;
41643;SDS011;44236;48.098;11.582;2023-03-04T04:04:05;4.03;;;2.42;;
41643;SDS011;44236;48.098;11.582;2023-03-04T04:06:30;3.92;;;2.88;;
41643;SDS011;44236;48.098;11.582;2023-03-04T04:08:56;3.97;;;2.40;;
41643;SDS011;44236;48.098;11.582;2023-03-04T04:11:21;3.63;;;2.53;;
41643;SDS011;44236;48.098;11.582;2023-03-04T04:13:47;4.75;;;2.83;;
41643;SDS011;44236;48.098;11.582;2023-03-04T04:16:12;3.95;;;2.50;;
41643;SDS011;44236;48.098;11.582;2023-03-04T04:18:38;4.55;;;2.55;;
41643;SDS011;44236;48.098;11.582;2023-03-04T04:21:06;5.57;;;2.92;;
41643;SDS011;44236;48.098;11.582;2023-03-04T04:23:32;8.52;;;3.30;;
41643;SDS011;44236;48.098;11.582;2023-03-04T04:25:58;4.65;;;2.88;;
41643;SDS011;44236;48.098;11.582;2023-03-04T04:28:23;3.92;;;2.45;;
41643;SDS011;44236;48.098;11.582;2023-03-04T04:30:49;4.65;;;2.88;;
41643;SDS011;44236;48.098;11.582;2023-03-04T04:33:15;5.22;;;3.17;;
41643;SDS011;44236;48.098;11.582;2023-03-04T04:35:41;3.75;;;2.65;;
41643;SDS011;44236;48.098;11.582;2023-03-04T04:38:07;4.68;;;2.65;;
41643;SDS011;44236;48.098;11.582;2023-03-04T04:40:33;4.05;;;2.50;;
41643;SDS011;44236;48.098;11.582;2023-03-04T04:42:59;5.13;;;3.10;;
41643;SDS011;44236;48.098;11.582;2023-03-04T04:45:25;4.47;;;2.88;;
41643;SDS011;44236;48.098;11.582;2023-03-04T04:47:51;4.57;;;3.05;;
41643;SDS011;44236;48.098;11.582;2023-03-04T04:50:18;3.97;;;2.38;;
41643;SDS011;44236;48.098;11.582;2023-03-04T04:52:44;5.13;;;3.50;;
41643;SDS011;44236;48.098;11.582;2023-03-04T04:55:09;4.63;;;2.80;;
41643;SDS011;44236;48.098;11.582;2023-03-04T04:57:35;4.28;;;2.40;;
41643;SDS011;44236;48.098;11.582;2023-03-04T05:00:02;5.20;;;2.72;;
41643;SDS011;44236;48.098;11.582;2023-03-04T05:02:29;4.18;;;2.58;;
41643;SDS011;44236;48.098;11.582;2023-03-04T05:04:55;4.05;;;2.28;;
41643;SDS011;44236;48.098;11.582;2023-03-04T05:07:21;4.53;;;2.35;;
41643;SDS011;44236;48.098;11.582;2023-03-04T05:09:47;4.63;;;2.53;;
41643;SDS011;44236;48.098;11.582;2023-03-04T05:12:12;4.70;;;2.78;;
41643;SDS011;44236;48.098;11.582;2023-03-04T05:14:38;5.18;;;2.67;;
41643;SDS011;44236;48.098;11.582;2023-03-04T05:17:04;5.68;;;2.45;;
41643;SDS011;44236;48.098;11.582;2023-03-04T05:19:29;3.63;;;2.30;;
41643;SDS011;44236;48.098;11.582;2023-03-04T05:21:55;5.03;;;3.03;;
41643;SDS011;44236;48.098;11.582;2023-03-04T05:24:20;4.00;;;2.35;;
41643;SDS011;44236;48.098;11.582;2023-03-04T05:26:46;4.05;;;2.60;;
41643;SDS011;44236;48.098;11.582;2023-03-04T05:29:12;4.13;;;2.30;;
41643;SDS011;44236;48.098;11.582;2023-03-04T05:31:37;4.30;;;2.60;;
41643;SDS011;44236;48.098;11.582;2023-03-04T05:34:03;4.45;;;2.63;;
41643;SDS011;44236;48.098;11.582;2023-03-04T05:36:28;4.22;;;2.55;;
41643;SDS011;44236;48.098;11.582;2023-03-04T05:38:54;4.60;;;2.63;;
41643;SDS011;44236;48.098;11.582;2023-03-04T05:41:20;4.40;;;2.95;;
41643;SDS011;44236;48.098;11.582;2023-03-04T05:43:47;4.40;;;2.80;;
41643;SDS011;44236;48.098;11.582;2023-03-04T05:46:14;5.28;;;3.10;;
41643;SDS011;44236;48.098;11.582;2023-03-04T05:48:41;6.63;;;3.70;;
41643;SDS011;44236;48.098;11.582;2023-03-04T05:51:09;4.53;;;2.67;;
41643;SDS011;44236;48.098;11.582;2023-03-04T05:53:35;4.85;;;2.80;;
41643;SDS011;44236;48.098;11.582;2023-03-04T05:56:11;9.23;;;2.80;;
41643;SDS011;44236;48.098;11.582;2023-03-04T05:58:39;4.78;;;3.20;;
41643;SDS011;44236;48.098;11.582;2023-03-04T06:01:06;4.13;;;2.53;;
41643;SDS011;44236;48.098;11.582;2023-03-04T06:03:32;4.72;;;2.50;;
41643;SDS011;44236;48.098;11.582;2023-03-04T06:05:57;4.50;;;2.95;;
41643;SDS011;44236;48.098;11.582;2023-03-04T06:08:23;4.25;;;2.90;;
41643;SDS011;44236;48.098;11.582;2023-03-04T06:10:51;5.43;;;3.28;;
41643;SDS011;44236;48.098;11.582;2023-03-04T06:13:20;4.95;;;2.75;;
41643;SDS011;44236;48.098;11.582;2023-03-04T06:15:46;8.57;;;3.40;;
41643;SDS011;44236;48.098;11.582;2023-03-04T06:18:17;7.65;;;3.70;;
41643;SDS011;44236;48.098;11.582;2023-03-04T06:20:42;6.07;;;2.80;;
41643;SDS011;44236;48.098;11.582;2023-03-04T06:23:09;6.35;;;2.80;;
41643;SDS011;44236;48.098;11.582;2023-03-04T06:25:34;5.35;;;3.30;;
41643;SDS011;44236;48.098;11.582;2023-03-04T06:28:00;4.57;;;2.83;;
41643;SDS011;44236;48.098;11.582;2023-03-04T06:30:26;5.63;;;3.30;;
41643;SDS011;44236;48.098;11.582;2023-03-04T06:32:52;5.72;;;3.65;;
41643;SDS011;44236;48.098;11.582;2023-03-04T06:35:17;6.75;;;3.53;;
41643;SDS011;44236;48.098;11.582;2023-03-04T06:37:43;5.53;;;3.17;;
41643;SDS011;44236;48.098;11.582;2023-03-04T06:40:09;11.10;;;3.05;;
41643;SDS011;44236;48.098;11.582;2023-03-04T06:42:35;8.88;;;3.17;;
41643;SDS011;44236;48.098;11.582;2023-03-04T06:45:02;5.63;;;2.80;;
41643;SDS011;44236;48.098;11.582;2023-03-04T06:47:28;8.43;;;3.10;;
41643;SDS011;44236;48.098;11.582;2023-03-04T06:49:54;5.10;;;3.00;;
41643;SDS011;44236;48.098;11.582;2023-03-04T06:52:20;5.40;;;3.05;;
41643;SDS011;44236;48.098;11.582;2023-03-04T06:54:45;4.75;;;2.97;;
41643;SDS011;44236;48.098;11.582;2023-03-04T06:57:11;5.13;;;2.90;;
41643;SDS011;44236;48.098;11.582;2023-03-04T06:59:37;6.18;;;3.17;;
41643;SDS011;44236;48.098;11.582;2023-03-04T07:02:03;6.05;;;3.55;;
41643;SDS011;44236;48.098;11.582;2023-03-04T07:04:29;5.20;;;3.30;;
41643;SDS011;44236;48.098;11.582;2023-03-04T07:06:55;6.80;;;3.20;;
41643;SDS011;44236;48.098;11.582;2023-03-04T07:09:20;7.07;;;3.38;;
41643;SDS011;44236;48.098;11.582;2023-03-04T07:11:46;4.53;;;3.05;;
41643;SDS011;44236;48.098;11.582;2023-03-04T07:14:12;5.95;;;3.28;;
41643;SDS011;44236;48.098;11.582;2023-03-04T07:16:38;5.70;;;3.25;;
41643;SDS011;44236;48.098;11.582;2023-03-04T07:19:04;22.80;;;15.35;;
41643;SDS011;44236;48.098;11.582;2023-03-04T07:21:29;24.70;;;17.83;;
41643;SDS011;44236;48.098;11.582;2023-03-04T07:23:55;24.67;;;15.75;;
41643;SDS011;44236;48.098;11.582;2023-03-04T07:26:21;19.20;;;13.27;;
41643;SDS011;44236;48.098;11.582;2023-03-04T07:28:47;18.50;;;11.70;;
41643;SDS011;44236;48.098;11.582;2023-03-04T07:31:23;17.00;;;11.52;;
41643;SDS011;44236;48.098;11.582;2023-03-04T07:33:54;15.55;;;10.00;;
41643;SDS011;44236;48.098;11.582;2023-03-04T07:36:21;12.68;;;8.65;;
41643;SDS011;44236;48.098;11.582;2023-03-04T07:38:47;12.98;;;8.52;;
41643;SDS011;44236;48.098;11.582;2023-03-04T07:41:14;16.00;;;8.35;;
41643;SDS011;44236;48.098;11.582;2023-03-04T07:43:41;14.10;;;7.03;;
41643;SDS011;44236;48.098;11.582;2023-03-04T07:46:07;12.68;;;7.07;;
41643;SDS011;44236;48.098;11.582;2023-03-04T07:48:33;11.45;;;6.35;;
41643;SDS011;44236;48.098;11.582;2023-03-04T07:51:18;10.77;;;7.18;;
41643;SDS011;44236;48.098;11.582;2023-03-04T07:53:46;18.65;;;7.10;;
41643;SDS011;44236;48.098;11.582;2023-03-04T07:56:14;11.98;;;6.43;;
41643;SDS011;44236;48.098;11.582;2023-03-04T07:58:43;9.50;;;5.45;;
41643;SDS011;44236;48.098;11.582;2023-03-04T08:01:10;15.30;;;6.03;;
41643;SDS011;44236;48.098;11.582;2023-03-04T08:03:37;15.93;;;6.47;;
41643;SDS011;44236;48.098;11.582;2023-03-04T08:06:03;11.57;;;4.95;;
41643;SDS011;44236;48.098;11.582;2023-03-04T08:08:33;13.73;;;5.10;;
41643;SDS011;44236;48.098;11.582;2023-03-04T08:10:59;15.45;;;4.88;;
41643;SDS011;44236;48.098;11.582;2023-03-04T08:13:28;11.95;;;4.72;;
41643;SDS011;44236;48.098;11.582;2023-03-04T08:15:54;9.27;;;4.95;;
41643;SDS011;44236;48.098;11.582;2023-03-04T08:18:20;14.18;;;5.03;;
41643;SDS011;44236;48.098;11.582;2023-03-04T08:20:46;6.82;;;4.35;;
41643;SDS011;44236;48.098;11.582;2023-03-04T08:23:12;10.45;;;6.15;;
41643;SDS011;44236;48.098;11.582;2023-03-04T08:25:41;10.82;;;4.90;;
41643;SDS011;44236;48.098;11.582;2023-03-04T08:28:07;9.38;;;4.82;;
41643;SDS011;44236;48.098;11.582;2023-03-04T08:30:34;14.02;;;4.40;;
41643;SDS011;44236;48.098;11.582;2023-03-04T08:33:00;8.50;;;4.30;;
41643;SDS011;44236;48.098;11.582;2023-03-04T08:35:27;17.05;;;4.75;;
41643;SDS011;44236;48.098;11.582;2023-03-04T08:37:53;9.82;;;4.50;;
41643;SDS011;44236;48.098;11.582;2023-03-04T08:40:19;6.70;;;4.15;;
41643;SDS011;44236;48.098;11.582;2023-03-04T08:42:44;7.78;;;4.07;;
41643;SDS011;44236;48.098;11.582;2023-03-04T08:45:10;12.63;;;4.75;;
41643;SDS011;44236;48.098;11.582;2023-03-04T08:47:36;6.65;;;3.58;;
41643;SDS011;44236;48.098;11.582;2023-03-04T08:50:02;9.05;;;4.65;;
41643;SDS011;44236;48.098;11.582;2023-03-04T08:52:30;7.68;;;4.38;;
41643;SDS011;44236;48.098;11.582;2023-03-04T08:54:56;10.10;;;4.63;;
41643;SDS011;44236;48.098;11.582;2023-03-04T08:57:22;8.63;;;4.47;;
41643;SDS011;44236;48.098;11.582;2023-03-04T08:59:47;8.82;;;4.38;;
41643;SDS011;44236;48.098;11.582;2023-03-04T09:02:13;8.32;;;3.97;;
41643;SDS011;44236;48.098;11.582;2023-03-04T09:04:39;8.52;;;3.75;;
41643;SDS011;44236;48.098;11.582;2023-03-04T09:07:05;10.75;;;4.38;;
41643;SDS011;44236;48.098;11.582;2023-03-04T09:09:31;6.95;;;3.95;;
41643;SDS011;44236;48.098;11.582;2023-03-04T09:12:01;8.27;;;5.35;;
41643;SDS011;44236;48.098;11.582;2023-03-04T09:14:26;8.50;;;3.70;;
41643;SDS011;44236;48.098;11.582;2023-03-04T09:16:52;10.27;;;4.05;;
41643;SDS011;44236;48.098;11.582;2023-03-04T09:19:18;7.78;;;4.28;;
41643;SDS011;44236;48.098;11.582;2023-03-04T09:21:44;8.70;;;3.92;;
41643;SDS011;44236;48.098;11.582;2023-03-04T09:24:09;9.27;;;4.22;;
41643;SDS011;44236;48.098;11.582;2023-03-04T09:26:35;7.78;;;3.75;;
41643;SDS011;44236;48.098;11.582;2023-03-04T09:29:04;10.38;;;4.32;;
41643;SDS011;44236;48.098;11.582;2023-03-04T09:31:30;11.70;;;4.53;;
41643;SDS011;44236;48.098;11.582;2023-03-04T09:33:56;6.43;;;4.05;;
41643;SDS011;44236;48.098;11.582;2023-03-04T09:36:23;10.73;;;4.65;;
41643;SDS011;44236;48.098;11.582;2023-03-04T09:38:49;7.38;;;3.88;;
41643;SDS011;44236;48.098;11.582;2023-03-04T09:41:35;7.43;;;3.95;;
41643;SDS011;44236;48.098;11.582;2023-03-04T09:46:58;7.43;;;4.05;;
41643;SDS011;44236;48.098;11.582;2023-03-04T09:49:29;10.60;;;4.60;;
41643;SDS011;44236;48.098;11.582;2023-03-04T09:51:58;7.15;;;4.32;;
41643;SDS011;44236;48.098;11.582;2023-03-04T10:00:36;8.15;;;3.70;;
41643;SDS011;44236;48.098;11.582;2023-03-04T10:08:35;6.93;;;3.88;;
41643;SDS011;44236;48.098;11.582;2023-03-04T10:14:15;7.20;;;4.35;;
41643;SDS011;44236;48.098;11.582;2023-03-04T10:16:56;6.25;;;3.75;;
41643;SDS011;44236;48.098;11.582;2023-03-04T10:19:44;8.93;;;3.88;;
41643;SDS011;44236;48.098;11.582;2023-03-04T10:25:16;7.75;;;3.90;;
41643;SDS011;44236;48.098;11.582;2023-03-04T10:27:54;8.60;;;3.50;;
41643;SDS011;44236;48.098;11.582;2023-03-04T10:30:34;7.28;;;3.88;;
41643;SDS011;44236;48.098;11.582;2023-03-04T10:33:18;7.07;;;3.83;;
41643;SDS011;44236;48.098;11.582;2023-03-04T10:36:02;8.32;;;3.65;;
41643;SDS011;44236;48.098;11.582;2023-03-04T10:38:32;6.97;;;3.58;;
41643;SDS011;44236;48.098;11.582;2023-03-04T10:41:00;10.53;;;4.33;;
41643;SDS011;44236;48.098;11.582;2023-03-04T10:43:35;7.35;;;4.13;;
41643;SDS011;44236;48.098;11.582;2023-03-04T10:46:01;5.70;;;3.83;;
41643;SDS011;44236;48.098;11.582;2023-03-04T10:48:28;6.47;;;3.70;;
41643;SDS011;44236;48.098;11.582;2023-03-04T10:53:47;7.05;;;3.60;;
41643;SDS011;44236;48.098;11.582;2023-03-04T10:59:24;7.45;;;4.30;;
41643;SDS011;44236;48.098;11.582;2023-03-04T11:02:19;6.25;;;3.80;;
41643;SDS011;44236;48.098;11.582;2023-03-04T11:04:51;6.55;;;4.03;;
41643;SDS011;44236;48.098;11.582;2023-03-04T11:07:21;6.32;;;3.88;;
41643;SDS011;44236;48.098;11.582;2023-03-04T11:09:49;7.32;;;4.13;;
41643;SDS011;44236;48.098;11.582;2023-03-04T11:12:16;7.30;;;3.80;;
41643;SDS011;44236;48.098;11.582;2023-03-04T11:14:48;7.00;;;4.13;;
41643;SDS011;44236;48.098;11.582;2023-03-04T11:20:00;6.28;;;4.18;;
41643;SDS011;44236;48.098;11.582;2023-03-04T11:22:36;4.97;;;3.30;;
41643;SDS011;44236;48.098;11.582;2023-03-04T11:25:07;6.63;;;3.70;;
41643;SDS011;44236;48.098;11.582;2023-03-04T11:27:51;5.80;;;3.58;;
41643;SDS011;44236;48.098;11.582;2023-03-04T11:30:37;6.55;;;3.92;;
41643;SDS011;44236;48.098;11.582;2023-03-04T11:33:08;7.45;;;4.25;;
41643;SDS011;44236;48.098;11.582;2023-03-04T11:35:46;5.68;;;3.65;;
41643;SDS011;44236;48.098;11.582;2023-03-04T11:40:53;6.72;;;3.85;;
41643;SDS011;44236;48.098;11.582;2023-03-04T11:56:25;5.63;;;3.50;;
41643;SDS011;44236;48.098;11.582;2023-03-04T11:59:06;7.07;;;3.95;;
41643;SDS011;44236;48.098;11.582;2023-03-04T12:10:15;5.63;;;3.40;;
41643;SDS011;44236;48.098;11.582;2023-03-04T12:18:16;7.15;;;3.95;;
41643;SDS011;44236;48.098;11.582;2023-03-04T12:21:02;5.10;;;3.17;;
41643;SDS011;44236;48.098;11.582;2023-03-04T12:26:26;5.45;;;3.25;;
41643;SDS011;44236;48.098;11.582;2023-03-04T12:32:17;7.43;;;4.18;;
41643;SDS011;44236;48.098;11.582;2023-03-04T12:43:31;6.03;;;3.25;;
41643;SDS011;44236;48.098;11.582;2023-03-04T12:52:02;6.20;;;3.45;;
41643;SDS011;44236;48.098;11.582;2023-03-04T12:54:48;6.65;;;3.90;;
41643;SDS011;44236;48.098;11.582;2023-03-04T12:57:17;6.20;;;3.85;;
41643;SDS011;44236;48.098;11.582;2023-03-04T13:05:47;5.85;;;3.53;;
41643;SDS011;44236;48.098;11.582;2023-03-04T13:11:30;4.80;;;3.45;;
41643;SDS011;44236;48.098;11.582;2023-03-04T13:16:31;8.55;;;4.13;;
41643;SDS011;44236;48.098;11.582;2023-03-04T13:19:03;5.82;;;3.63;;
41643;SDS011;44236;48.098;11.582;2023-03-04T13:22:27;6.85;;;3.90;;
41643;SDS011;44236;48.098;11.582;2023-03-04T13:24:54;5.95;;;3.85;;
41643;SDS011;44236;48.098;11.582;2023-03-04T13:38:29;7.10;;;4.55;;
41643;SDS011;44236;48.098;11.582;2023-03-04T13:43:51;7.55;;;4.10;;
41643;SDS011;44236;48.098;11.582;2023-03-04T13:54:13;5.93;;;3.75;;
41643;SDS011;44236;48.098;11.582;2023-03-04T13:56:39;5.63;;;3.65;;
41643;SDS011;44236;48.098;11.582;2023-03-04T14:02:11;10.48;;;4.30;;
41643;SDS011;44236;48.098;11.582;2023-03-04T14:04:55;8.18;;;4.32;;
41643;SDS011;44236;48.098;11.582;2023-03-04T14:07:24;7.57;;;4.05;;
41643;SDS011;44236;48.098;11.582;2023-03-04T14:12:45;13.25;;;4.63;;
41643;SDS011;44236;48.098;11.582;2023-03-04T14:15:20;8.73;;;4.05;;
41643;SDS011;44236;48.098;11.582;2023-03-04T14:17:47;8.55;;;3.92;;
41643;SDS011;44236;48.098;11.582;2023-03-04T14:22:54;5.97;;;4.00;;
41643;SDS011;44236;48.098;11.582;2023-03-04T14:25:24;5.88;;;4.00;;
41643;SDS011;44236;48.098;11.582;2023-03-04T14:28:10;6.35;;;3.80;;
41643;SDS011;44236;48.098;11.582;2023-03-04T14:30:42;6.88;;;4.38;;
41643;SDS011;44236;48.098;11.582;2023-03-04T14:33:16;6.85;;;3.72;;
41643;SDS011;44236;48.098;11.582;2023-03-04T14:35:49;7.05;;;3.78;;
41643;SDS011;44236;48.098;11.582;2023-03-04T14:38:22;7.68;;;3.90;;
41643;SDS011;44236;48.098;11.582;2023-03-04T14:41:08;6.60;;;4.03;;
41643;SDS011;44236;48.098;11.582;2023-03-04T14:46:33;7.00;;;3.60;;
41643;SDS011;44236;48.098;11.582;2023-03-04T14:49:10;7.03;;;4.20;;
41643;SDS011;44236;48.098;11.582;2023-03-04T14:51:48;7.53;;;3.63;;
41643;SDS011;44236;48.098;11.582;2023-03-04T14:54:37;6.68;;;3.85;;
41643;SDS011;44236;48.098;11.582;2023-03-04T14:57:21;6.22;;;3.70;;
41643;SDS011;44236;48.098;11.582;2023-03-04T14:59:50;5.97;;;3.60;;
41643;SDS011;44236;48.098;11.582;2023-03-04T15:02:27;5.40;;;3.45;;
41643;SDS011;44236;48.098;11.582;2023-03-04T15:05:00;17.70;;;8.88;;
41643;SDS011;44236;48.098;11.582;2023-03-04T15:07:58;20.10;;;12.00;;
41643;SDS011;44236;48.098;11.582;2023-03-04T15:10:26;20.45;;;11.90;;
41643;SDS011;44236;48.098;11.582;2023-03-04T15:12:55;19.48;;;11.85;;
41643;SDS011;44236;48.098;11.582;2023-03-04T15:18:11;22.45;;;12.30;;
41643;SDS011;44236;48.098;11.582;2023-03-04T15:20:58;17.10;;;11.52;;
41643;SDS011;44236;48.098;11.582;2023-03-04T15:23:47;22.00;;;12.93;;
41643;SDS011;44236;48.098;11.582;2023-03-04T15:26:13;20.48;;;11.23;;
41643;SDS011;44236;48.098;11.582;2023-03-04T15:28:39;17.85;;;10.85;;
41643;SDS011;44236;48.098;11.582;2023-03-04T15:31:15;22.27;;;11.48;;
41643;SDS011;44236;48.098;11.582;2023-03-04T15:33:45;20.77;;;11.82;;
41643;SDS011;44236;48.098;11.582;2023-03-04T15:36:11;21.95;;;12.20;;
41643;SDS011;44236;48.098;11.582;2023-03-04T15:38:40;18.75;;;10.82;;
41643;SDS011;44236;48.098;11.582;2023-03-04T15:41:09;17.90;;;10.90;;
41643;SDS011;44236;48.098;11.582;2023-03-04T15:43:36;21.85;;;12.07;;
41643;SDS011;44236;48.098;11.582;2023-03-04T15:46:02;23.17;;;12.00;;
41643;SDS011;44236;48.098;11.582;2023-03-04T15:48:28;16.70;;;10.07;;
41643;SDS011;44236;48.098;11.582;2023-03-04T15:50:55;16.40;;;8.60;;
41643;SDS011;44236;48.098;11.582;2023-03-04T15:55:54;11.55;;;7.03;;
41643;SDS011;44236;48.098;11.582;2023-03-04T15:58:20;11.32;;;5.95;;
41643;SDS011;44236;48.098;11.582;2023-03-04T16:00:46;9.55;;;5.55;;
41643;SDS011;44236;48.098;11.582;2023-03-04T16:03:13;8.13;;;4.78;;
41643;SDS011;44236;48.098;11.582;2023-03-04T16:05:40;9.88;;;5.18;;
41643;SDS011;44236;48.098;11.582;2023-03-04T16:08:09;8.75;;;4.00;;
41643;SDS011;44236;48.098;11.582;2023-03-04T16:10:38;7.57;;;4.53;;
41643;SDS011;44236;48.098;11.582;2023-03-04T16:13:04;8.35;;;4.13;;
41643;SDS011;44236;48.098;11.582;2023-03-04T16:15:29;10.15;;;4.00;;
41643;SDS011;44236;48.098;11.582;2023-03-04T16:17:55;6.78;;;3.47;;
41643;SDS011;44236;48.098;11.582;2023-03-04T16:20:23;7.20;;;3.72;;
41643;SDS011;44236;48.098;11.582;2023-03-04T16:22:53;6.55;;;3.95;;
41643;SDS011;44236;48.098;11.582;2023-03-04T16:25:22;9.90;;;5.28;;
41643;SDS011;44236;48.098;11.582;2023-03-04T16:27:52;7.07;;;3.33;;
41643;SDS011;44236;48.098;11.582;2023-03-04T16:30:22;5.80;;;3.35;;
41643;SDS011;44236;48.098;11.582;2023-03-04T16:32:48;4.82;;;2.85;;
41643;SDS011;44236;48.098;11.582;2023-03-04T16:35:14;7.30;;;3.05;;
41643;SDS011;44236;48.098;11.582;2023-03-04T16:37:41;7.30;;;3.28;;
41643;SDS011;44236;48.098;11.582;2023-03-04T16:40:09;7.43;;;3.55;;
41643;SDS011;44236;48.098;11.582;2023-03-04T16:42:38;5.50;;;3.03;;
41643;SDS011;44236;48.098;11.582;2023-03-04T16:45:05;5.28;;;2.80;;
41643;SDS011;44236;48.098;11.582;2023-03-04T16:47:34;5.80;;;3.20;;
41643;SDS011;44236;48.098;11.582;2023-03-04T16:50:00;5.93;;;3.40;;
41643;SDS011;44236;48.098;11.582;2023-03-04T16:52:27;5.85;;;3.67;;
41643;SDS011;44236;48.098;11.582;2023-03-04T16:54:55;7.60;;;3.40;;
41643;SDS011;44236;48.098;11.582;2023-03-04T16:57:22;5.60;;;2.55;;